createdAt,value
2022-12-24T00:01:32.821Z,95489.97
2022-12-24T00:03:59.390Z,95477.06
2022-12-24T00:06:26.031Z,95477.63
2022-12-24T00:08:52.995Z,95476.69
2022-12-24T00:11:19.659Z,95486.69
2022-12-24T00:13:46.317Z,95494.16
2022-12-24T00:16:12.896Z,95492.22
2022-12-24T00:18:45.473Z,95489.03
2022-12-24T00:21:13.047Z,95484.31
2022-12-24T00:23:40.027Z,95483.50
2022-12-24T00:26:06.559Z,95476.44
2022-12-24T00:28:33.148Z,95483.50
2022-12-24T00:30:59.661Z,95486.69
2022-12-24T00:33:26.224Z,95476.44
2022-12-24T00:35:53.176Z,95468.81
2022-12-24T00:38:19.805Z,95469.50
2022-12-24T00:40:46.315Z,95492.91
2022-12-24T00:43:12.862Z,95498.31
2022-12-24T00:45:39.410Z,95490.28
2022-12-24T00:48:06.046Z,95494.75
2022-12-24T00:50:32.597Z,95491.84
2022-12-24T00:52:59.122Z,95504.03
2022-12-24T00:55:25.718Z,95507.75
2022-12-24T00:57:52.304Z,95506.09
2022-12-24T01:00:19.023Z,95516.88
2022-12-24T01:02:45.828Z,95506.63
2022-12-24T01:05:12.707Z,95513.56
2022-12-24T01:07:41.172Z,95512.56
2022-12-24T01:10:08.516Z,95514.38
2022-12-24T01:12:35.190Z,95522.41
2022-12-24T01:15:01.714Z,95528.75
2022-12-24T01:17:28.214Z,95529.72
2022-12-24T01:19:54.733Z,95527.09
2022-12-24T01:22:21.244Z,95532.47
2022-12-24T01:24:47.906Z,95537.88
2022-12-24T01:27:14.489Z,95560.94
2022-12-24T01:29:41.092Z,95556.09
2022-12-24T01:32:07.650Z,95550.44
2022-12-24T01:34:34.231Z,95545.47
2022-12-24T01:37:00.762Z,95543.41
2022-12-24T01:39:27.300Z,95567.75
2022-12-24T01:42:12.685Z,95560.00
2022-12-24T01:44:43.802Z,95551.41
2022-12-24T01:47:25.931Z,95570.72
2022-12-24T01:49:56.408Z,95592.03
2022-12-24T01:52:24.781Z,95570.66
2022-12-24T01:54:55.381Z,95578.66
2022-12-24T01:57:24.837Z,95582.94
2022-12-24T01:59:53.643Z,95582.41
2022-12-24T02:02:20.854Z,95597.47
2022-12-24T02:04:53.488Z,95582.16
2022-12-24T02:07:20.074Z,95558.69
2022-12-24T02:09:47.389Z,95568.63
2022-12-24T02:12:13.978Z,95569.59
2022-12-24T02:14:40.520Z,95569.88
2022-12-24T02:17:16.306Z,95573.31
2022-12-24T02:19:42.814Z,95589.25
2022-12-24T02:22:16.044Z,95588.28
2022-12-24T02:25:02.150Z,95585.00
2022-12-24T02:27:31.436Z,95572.28
2022-12-24T02:30:03.817Z,95556.78
2022-12-24T02:32:30.273Z,95561.91
2022-12-24T02:35:05.912Z,95554.28
2022-12-24T02:37:35.051Z,95576.16
2022-12-24T02:40:10.673Z,95569.78
2022-12-24T02:42:44.871Z,95564.09
2022-12-24T02:45:13.627Z,95567.00
2022-12-24T02:47:41.605Z,95573.63
2022-12-24T02:50:09.848Z,95567.41
2022-12-24T02:52:37.895Z,95563.66
2022-12-24T02:55:12.058Z,95557.41
2022-12-24T02:57:38.795Z,95573.72
2022-12-24T03:00:09.559Z,95565.81
2022-12-24T03:03:08.457Z,95566.91
2022-12-24T03:05:53.266Z,95569.66
2022-12-24T03:08:25.612Z,95577.03
2022-12-24T03:10:55.319Z,95573.22
2022-12-24T03:13:22.855Z,95572.63
2022-12-24T03:15:50.515Z,95589.22
2022-12-24T03:18:22.705Z,95581.34
2022-12-24T03:20:53.993Z,95575.56
2022-12-24T03:23:20.876Z,95581.75
2022-12-24T03:25:47.423Z,95572.19
2022-12-24T03:28:17.038Z,95586.00
2022-12-24T03:30:45.862Z,95583.94
2022-12-24T03:33:13.310Z,95577.75
2022-12-24T03:35:39.860Z,95587.41
2022-12-24T03:38:06.420Z,95580.91
2022-12-24T03:40:32.952Z,95596.06
2022-12-24T03:42:59.503Z,95605.91
2022-12-24T03:45:26.050Z,95596.50
2022-12-24T03:47:52.886Z,95606.38
2022-12-24T03:50:19.417Z,95604.03
2022-12-24T03:52:45.963Z,95596.16
2022-12-24T03:55:12.550Z,95597.25
2022-12-24T03:57:39.070Z,95612.81
2022-12-24T04:00:06.319Z,95618.59
2022-12-24T04:02:32.955Z,95637.25
2022-12-24T04:04:59.606Z,95643.63
2022-12-24T04:07:26.124Z,95643.31
2022-12-24T04:09:52.641Z,95653.78
2022-12-24T04:12:19.172Z,95669.91
2022-12-24T04:14:45.673Z,95661.66
2022-12-24T04:17:12.240Z,95679.72
2022-12-24T04:19:38.775Z,95663.50
2022-12-24T04:22:05.278Z,95666.91
2022-12-24T04:24:31.809Z,95654.03
2022-12-24T04:26:58.313Z,95652.50
2022-12-24T04:29:24.972Z,95655.38
2022-12-24T04:31:51.534Z,95640.91
2022-12-24T04:34:18.124Z,95641.09
2022-12-24T04:36:44.652Z,95646.38
2022-12-24T04:39:11.203Z,95661.13
2022-12-24T04:41:37.772Z,95661.28
2022-12-24T04:44:04.300Z,95647.81
2022-12-24T04:46:31.464Z,95641.00
2022-12-24T04:48:58.432Z,95635.25
2022-12-24T04:51:26.334Z,95632.09
2022-12-24T04:53:52.913Z,95631.31
2022-12-24T04:56:26.804Z,95620.94
2022-12-24T04:58:53.857Z,95629.69
2022-12-24T05:01:25.545Z,95639.69
2022-12-24T05:03:52.246Z,95639.03
2022-12-24T05:06:20.183Z,95649.47
2022-12-24T05:08:46.758Z,95639.50
2022-12-24T05:11:15.711Z,95638.13
2022-12-24T05:13:47.081Z,95652.00
2022-12-24T05:16:15.372Z,95648.41
2022-12-24T05:18:42.081Z,95648.16
2022-12-24T05:21:09.787Z,95653.31
2022-12-24T05:24:09.871Z,95660.34
2022-12-24T05:26:36.439Z,95683.84
2022-12-24T05:29:06.329Z,95675.72
2022-12-24T05:31:33.632Z,95691.75
2022-12-24T05:34:00.691Z,95691.06
2022-12-24T05:36:27.534Z,95699.13
2022-12-24T05:38:54.355Z,95694.41
2022-12-24T05:41:20.989Z,95695.53
2022-12-24T05:43:47.492Z,95710.34
2022-12-24T05:46:15.381Z,95705.91
2022-12-24T05:48:42.104Z,95694.00
2022-12-24T05:51:10.868Z,95697.91
2022-12-24T05:53:37.476Z,95726.28
2022-12-24T05:56:08.072Z,95727.91
2022-12-24T05:58:34.670Z,95717.94
2022-12-24T06:01:02.127Z,95730.66
2022-12-24T06:03:29.472Z,95740.78
2022-12-24T06:06:09.660Z,95742.25
2022-12-24T06:08:37.408Z,95748.72
2022-12-24T06:11:05.777Z,95757.06
2022-12-24T06:13:33.023Z,95742.84
2022-12-24T06:16:00.793Z,95752.19
2022-12-24T06:18:28.797Z,95753.66
2022-12-24T06:20:56.244Z,95751.53
2022-12-24T06:23:24.003Z,95765.34
2022-12-24T06:25:51.165Z,95775.72
2022-12-24T06:28:18.324Z,95786.34
2022-12-24T06:30:48.662Z,95781.34
2022-12-24T06:33:15.390Z,95784.53
2022-12-24T06:35:42.024Z,95788.44
2022-12-24T06:38:08.560Z,95787.25
2022-12-24T06:40:35.077Z,95787.84
2022-12-24T06:43:01.661Z,95777.81
2022-12-24T06:45:28.113Z,95783.59
2022-12-24T06:47:54.650Z,95771.81
2022-12-24T06:50:21.184Z,95774.91
2022-12-24T06:52:47.794Z,95781.97
2022-12-24T06:55:14.346Z,95768.19
2022-12-24T06:57:40.913Z,95768.91
2022-12-24T07:00:08.805Z,95765.91
2022-12-24T07:02:35.522Z,95775.25
2022-12-24T07:05:02.132Z,95785.50
2022-12-24T07:07:28.670Z,95792.81
2022-12-24T07:09:56.118Z,95789.59
2022-12-24T07:12:22.652Z,95791.13
2022-12-24T07:14:49.226Z,95802.31
2022-12-24T07:17:15.864Z,95811.88
2022-12-24T07:19:42.524Z,95827.59
2022-12-24T07:22:15.073Z,95832.09
2022-12-24T07:24:42.105Z,95832.09
2022-12-24T07:27:09.052Z,95829.19
2022-12-24T07:29:35.575Z,95835.97
2022-12-24T07:32:02.151Z,95847.78
2022-12-24T07:34:28.696Z,95835.66
2022-12-24T07:36:55.265Z,95835.28
2022-12-24T07:39:21.839Z,95839.88
2022-12-24T07:41:50.500Z,95844.81
2022-12-24T07:44:17.513Z,95846.50
2022-12-24T07:46:44.572Z,95845.81
2022-12-24T07:49:11.352Z,95851.06
2022-12-24T07:51:37.931Z,95853.28
2022-12-24T07:54:05.151Z,95854.53
2022-12-24T07:56:32.141Z,95855.81
2022-12-24T07:58:58.696Z,95859.91
2022-12-24T08:01:25.423Z,95861.81
2022-12-24T08:03:54.686Z,95876.88
2022-12-24T08:06:21.793Z,95879.03
2022-12-24T08:08:48.492Z,95879.72
2022-12-24T08:11:16.232Z,95877.50
2022-12-24T08:13:42.791Z,95896.84
2022-12-24T08:16:09.304Z,95890.56
2022-12-24T08:18:35.860Z,95886.84
2022-12-24T08:21:02.353Z,95885.03
2022-12-24T08:23:29.043Z,95887.31
2022-12-24T08:25:55.539Z,95895.06
2022-12-24T08:28:22.038Z,95882.75
2022-12-24T08:30:49.705Z,95894.75
2022-12-24T08:33:16.552Z,95898.06
2022-12-24T08:35:49.650Z,95899.31
2022-12-24T08:38:16.782Z,95911.00
2022-12-24T08:40:43.763Z,95910.69
2022-12-24T08:43:10.327Z,95888.94
2022-12-24T08:45:40.858Z,95902.69
2022-12-24T08:48:08.671Z,95888.72
2022-12-24T08:50:35.341Z,95898.38
2022-12-24T08:53:01.961Z,95907.94
2022-12-24T08:55:28.477Z,95909.63
2022-12-24T08:57:55.013Z,95906.97
2022-12-24T09:00:21.704Z,95918.41
2022-12-24T09:02:48.308Z,95912.88
2022-12-24T09:05:15.162Z,95910.78
2022-12-24T09:07:41.687Z,95922.34
2022-12-24T09:10:08.682Z,95933.28
2022-12-24T09:12:35.253Z,95927.88
2022-12-24T09:15:04.188Z,95936.75
2022-12-24T09:17:30.951Z,95924.63
2022-12-24T09:19:57.470Z,95924.91
2022-12-24T09:22:24.053Z,95921.84
2022-12-24T09:24:50.625Z,95934.03
2022-12-24T09:27:17.135Z,95938.72
2022-12-24T09:29:43.695Z,95934.81
2022-12-24T09:32:10.410Z,95933.63
2022-12-24T09:34:37.211Z,95947.00
2022-12-24T09:37:03.819Z,95943.97
2022-12-24T09:39:30.396Z,95941.22
2022-12-24T09:42:02.801Z,95939.16
2022-12-24T09:44:33.813Z,95932.06
2022-12-24T09:47:08.166Z,95928.16
2022-12-24T09:49:40.421Z,95925.41
2022-12-24T09:52:09.448Z,95928.72
2022-12-24T09:54:47.663Z,95940.81
2022-12-24T09:57:23.251Z,95935.38
2022-12-24T09:59:50.413Z,95933.09
2022-12-24T10:02:18.479Z,95929.28
2022-12-24T10:04:46.077Z,95940.94
2022-12-24T10:07:31.229Z,95950.56
2022-12-24T10:10:18.589Z,95957.38
2022-12-24T10:13:00.445Z,95955.09
2022-12-24T10:15:33.797Z,95936.94
2022-12-24T10:18:00.464Z,95945.72
2022-12-24T10:20:27.077Z,95947.31
2022-12-24T10:23:12.056Z,95943.47
2022-12-24T10:25:54.959Z,95941.63
2022-12-24T10:28:32.989Z,95939.53
2022-12-24T10:31:01.306Z,95947.50
2022-12-24T10:33:40.961Z,95943.22
2022-12-24T10:36:12.483Z,95950.16
2022-12-24T10:38:39.287Z,95958.69
2022-12-24T10:41:06.145Z,95965.69
2022-12-24T10:43:32.660Z,95959.94
2022-12-24T10:46:04.990Z,95976.25
2022-12-24T10:48:45.017Z,95967.28
2022-12-24T10:51:29.767Z,95974.44
2022-12-24T10:54:01.976Z,95983.22
2022-12-24T10:56:28.540Z,95979.03
2022-12-24T10:58:55.524Z,95984.06
2022-12-24T11:01:42.175Z,95978.81
2022-12-24T11:04:15.049Z,95974.59
2022-12-24T11:06:59.646Z,95974.88
2022-12-24T11:09:28.339Z,95983.97
2022-12-24T11:11:55.573Z,95974.56
2022-12-24T11:14:22.543Z,95982.78
2022-12-24T11:16:50.704Z,95970.94
2022-12-24T11:19:18.856Z,95979.31
2022-12-24T11:21:45.397Z,95976.25
2022-12-24T11:24:28.773Z,95983.72
2022-12-24T11:26:55.310Z,95985.38
2022-12-24T11:29:21.919Z,95985.91
2022-12-24T11:31:49.249Z,95988.41
2022-12-24T11:34:32.650Z,95984.50
2022-12-24T11:37:16.277Z,95991.34
2022-12-24T11:39:50.946Z,95992.03
2022-12-24T11:42:29.595Z,95987.75
2022-12-24T11:44:57.530Z,95990.44
2022-12-24T11:47:37.448Z,95987.97
2022-12-24T11:50:22.704Z,95995.97
2022-12-24T11:53:12.151Z,96000.78
2022-12-24T11:55:41.909Z,95998.13
2022-12-24T11:58:17.348Z,95983.97
2022-12-24T12:00:45.460Z,95985.81
2022-12-24T12:03:28.196Z,95982.13
2022-12-24T12:05:55.597Z,95984.28
2022-12-24T12:08:22.791Z,95971.72
2022-12-24T12:10:51.746Z,95974.25
2022-12-24T12:13:24.251Z,95963.94
2022-12-24T12:16:03.163Z,95969.94
2022-12-24T12:18:34.565Z,95970.63
2022-12-24T12:21:04.743Z,95971.34
2022-12-24T12:23:34.126Z,95977.22
2022-12-24T12:26:04.603Z,95977.47
2022-12-24T12:29:09.783Z,95980.28
2022-12-24T12:31:36.482Z,95984.78
2022-12-24T12:34:07.131Z,95990.34
2022-12-24T12:36:36.329Z,95983.81
2022-12-24T12:39:02.895Z,95989.78
2022-12-24T12:41:38.573Z,95994.16
2022-12-24T12:44:05.108Z,95998.69
2022-12-24T12:46:43.954Z,96003.66
2022-12-24T12:49:13.451Z,96001.34
2022-12-24T12:51:42.679Z,95999.16
2022-12-24T12:54:09.197Z,95993.47
2022-12-24T12:56:36.978Z,95990.34
2022-12-24T12:59:16.565Z,95996.19
2022-12-24T13:01:43.517Z,96003.44
2022-12-24T13:04:10.173Z,96013.25
2022-12-24T13:06:42.665Z,96009.81
2022-12-24T13:09:22.699Z,96013.28
2022-12-24T13:12:08.194Z,96013.00
2022-12-24T13:14:37.440Z,96014.97
2022-12-24T13:17:07.036Z,96008.28
2022-12-24T13:19:56.656Z,96005.31
2022-12-24T13:22:23.305Z,96013.06
2022-12-24T13:24:55.997Z,96012.22
2022-12-24T13:27:32.850Z,96008.13
2022-12-24T13:30:10.103Z,96013.00
2022-12-24T13:32:38.757Z,96022.50
2022-12-24T13:35:25.597Z,96031.66
2022-12-24T13:37:52.472Z,96034.69
2022-12-24T13:40:26.017Z,96040.66
2022-12-24T13:42:52.807Z,96042.00
2022-12-24T13:45:34.832Z,96051.78
2022-12-24T13:48:13.155Z,96055.81
2022-12-24T13:50:42.505Z,96054.34
2022-12-24T13:53:38.321Z,96055.34
2022-12-24T13:56:04.899Z,96056.88
2022-12-24T13:58:31.815Z,96067.69
2022-12-24T14:00:58.335Z,96080.31
2022-12-24T14:03:24.995Z,96088.75
2022-12-24T14:05:59.868Z,96092.06
2022-12-24T14:08:32.513Z,96080.25
2022-12-24T14:11:03.146Z,96080.28
2022-12-24T14:13:53.043Z,96095.22
2022-12-24T14:16:24.148Z,96098.88
2022-12-24T14:18:58.690Z,96099.22
2022-12-24T14:21:26.743Z,96089.41
2022-12-24T14:23:57.649Z,96095.03
2022-12-24T14:26:28.157Z,96112.63
2022-12-24T14:29:00.863Z,96118.78
2022-12-24T14:31:27.553Z,96122.84
2022-12-24T14:34:05.908Z,96124.00
2022-12-24T14:36:32.728Z,96122.97
2022-12-24T14:39:00.162Z,96117.63
2022-12-24T14:41:41.119Z,96123.56
2022-12-24T14:44:18.438Z,96128.00
2022-12-24T14:46:51.015Z,96135.97
2022-12-24T14:49:23.526Z,96141.34
2022-12-24T14:51:52.911Z,96141.84
2022-12-24T14:54:28.296Z,96153.16
2022-12-24T14:57:09.966Z,96167.72
2022-12-24T14:59:55.449Z,96171.22
2022-12-24T15:02:37.654Z,96179.28
2022-12-24T15:05:07.529Z,96178.00
2022-12-24T15:07:34.894Z,96170.25
2022-12-24T15:10:03.354Z,96189.19
2022-12-24T15:12:30.627Z,96193.72
2022-12-24T15:14:57.268Z,96187.50
2022-12-24T15:17:24.988Z,96188.00
2022-12-24T15:19:52.746Z,96204.75
2022-12-24T15:22:27.741Z,96202.25
2022-12-24T15:24:54.412Z,96212.34
2022-12-24T15:27:22.225Z,96213.47
2022-12-24T15:29:50.529Z,96219.63
2022-12-24T15:32:18.850Z,96211.53
2022-12-24T15:34:48.606Z,96215.59
2022-12-24T15:37:25.788Z,96231.59
2022-12-24T15:39:56.729Z,96236.94
2022-12-24T15:42:24.302Z,96232.50
2022-12-24T15:45:07.715Z,96244.19
2022-12-24T15:47:42.987Z,96255.38
2022-12-24T15:50:17.319Z,96253.72
2022-12-24T15:52:44.389Z,96265.72
2022-12-24T15:55:34.351Z,96267.66
2022-12-24T15:58:02.465Z,96261.28
2022-12-24T16:00:31.188Z,96271.31
2022-12-24T16:03:29.955Z,96274.34
2022-12-24T16:06:03.779Z,96278.41
2022-12-24T16:08:39.116Z,96282.41
2022-12-24T16:11:05.633Z,96282.97
2022-12-24T16:13:33.795Z,96298.22
2022-12-24T16:16:08.588Z,96301.53
2022-12-24T16:18:36.972Z,96298.59
2022-12-24T16:21:04.466Z,96307.63
2022-12-24T16:23:34.615Z,96294.25
2022-12-24T16:26:01.131Z,96305.09
2022-12-24T16:28:27.893Z,96307.88
2022-12-24T16:30:56.004Z,96316.16
2022-12-24T16:33:23.783Z,96315.63
2022-12-24T16:35:50.493Z,96322.44
2022-12-24T16:38:17.042Z,96317.28
2022-12-24T16:40:43.583Z,96319.63
2022-12-24T16:43:28.963Z,96330.44
2022-12-24T16:45:58.898Z,96339.28
2022-12-24T16:48:25.710Z,96327.56
2022-12-24T16:50:53.049Z,96333.34
2022-12-24T16:53:20.464Z,96329.31
2022-12-24T16:55:47.927Z,96328.97
2022-12-24T16:58:15.284Z,96341.16
2022-12-24T17:00:42.486Z,96335.81
2022-12-24T17:03:09.441Z,96335.09
2022-12-24T17:05:42.865Z,96338.97
2022-12-24T17:08:10.051Z,96345.72
2022-12-24T17:10:36.767Z,96351.25
2022-12-24T17:13:03.288Z,96347.75
2022-12-24T17:15:29.911Z,96347.44
2022-12-24T17:17:56.524Z,96346.97
2022-12-24T17:20:24.458Z,96350.25
2022-12-24T17:22:51.256Z,96345.47
2022-12-24T17:25:17.817Z,96345.72
2022-12-24T17:27:44.418Z,96351.75
2022-12-24T17:30:11.134Z,96349.72
2022-12-24T17:32:39.840Z,96358.00
2022-12-24T17:35:06.936Z,96363.75
2022-12-24T17:37:33.627Z,96365.91
2022-12-24T17:40:00.260Z,96369.75
2022-12-24T17:42:26.863Z,96373.72
2022-12-24T17:44:53.389Z,96387.41
2022-12-24T17:47:19.896Z,96383.69
2022-12-24T17:49:46.449Z,96391.81
2022-12-24T17:52:13.055Z,96392.41
2022-12-24T17:54:39.668Z,96393.75
2022-12-24T17:57:06.187Z,96396.38
2022-12-24T17:59:32.733Z,96412.91
2022-12-24T18:01:59.368Z,96407.75
2022-12-24T18:04:26.009Z,96411.81
2022-12-24T18:06:57.830Z,96405.22
2022-12-24T18:09:28.479Z,96407.16
2022-12-24T18:11:55.244Z,96410.72
2022-12-24T18:14:21.790Z,96400.31
2022-12-24T18:16:48.564Z,96403.09
2022-12-24T18:19:15.470Z,96407.00
2022-12-24T18:21:42.051Z,96406.06
2022-12-24T18:24:09.334Z,96397.56
2022-12-24T18:26:35.953Z,96408.19
2022-12-24T18:29:04.806Z,96413.38
2022-12-24T18:31:33.634Z,96409.53
2022-12-24T18:34:01.300Z,96414.69
2022-12-24T18:36:27.854Z,96408.81
2022-12-24T18:38:54.435Z,96410.50
2022-12-24T18:41:22.409Z,96420.91
2022-12-24T18:43:49.396Z,96424.59
2022-12-24T18:46:17.841Z,96421.28
2022-12-24T18:48:44.632Z,96429.88
2022-12-24T18:51:11.689Z,96431.88
2022-12-24T18:53:38.785Z,96439.06
2022-12-24T18:56:08.337Z,96437.41
2022-12-24T18:58:34.912Z,96436.31
2022-12-24T19:01:01.483Z,96434.19
2022-12-24T19:03:28.096Z,96439.22
2022-12-24T19:05:54.634Z,96449.25
2022-12-24T19:08:55.577Z,96454.88
2022-12-24T19:11:08.082Z,96461.09
2022-12-24T19:13:35.033Z,96460.13
2022-12-24T19:16:04.413Z,96469.09
2022-12-24T19:18:30.924Z,96467.28
2022-12-24T19:20:57.844Z,96460.25
2022-12-24T19:23:24.385Z,96459.53
2022-12-24T19:25:50.949Z,96460.00
2022-12-24T19:28:21.292Z,96452.84
2022-12-24T19:30:50.684Z,96454.50
2022-12-24T19:33:17.512Z,96460.63
2022-12-24T19:35:44.029Z,96463.41
2022-12-24T19:38:10.817Z,96459.94
2022-12-24T19:40:37.821Z,96466.28
2022-12-24T19:43:04.453Z,96470.22
2022-12-24T19:45:31.039Z,96467.72
2022-12-24T19:47:57.563Z,96472.00
2022-12-24T19:50:24.208Z,96477.88
2022-12-24T19:52:50.786Z,96478.63
2022-12-24T19:55:17.333Z,96476.56
2022-12-24T19:57:43.933Z,96485.44
2022-12-24T20:00:11.137Z,96472.38
2022-12-24T20:02:37.836Z,96470.72
2022-12-24T20:05:04.617Z,96477.88
2022-12-24T20:07:31.267Z,96477.75
2022-12-24T20:09:58.105Z,96490.94
2022-12-24T20:12:24.724Z,96486.41
2022-12-24T20:14:51.328Z,96482.06
2022-12-24T20:17:17.958Z,96471.91
2022-12-24T20:19:44.497Z,96481.59
2022-12-24T20:22:11.276Z,96482.06
2022-12-24T20:24:37.777Z,96481.25
2022-12-24T20:27:04.365Z,96489.63
2022-12-24T20:29:30.939Z,96492.03
2022-12-24T20:31:57.512Z,96492.78
2022-12-24T20:34:24.141Z,96493.22
2022-12-24T20:36:50.709Z,96494.91
2022-12-24T20:39:17.345Z,96499.47
2022-12-24T20:41:43.921Z,96503.44
2022-12-24T20:44:10.863Z,96508.19
2022-12-24T20:46:37.409Z,96515.78
2022-12-24T20:49:03.935Z,96508.00
2022-12-24T20:51:30.509Z,96510.13
2022-12-24T20:53:58.807Z,96510.47
2022-12-24T20:56:25.419Z,96518.25
2022-12-24T20:58:52.367Z,96521.34
2022-12-24T21:01:20.505Z,96526.84
2022-12-24T21:03:47.554Z,96519.88
2022-12-24T21:06:15.686Z,96528.66
2022-12-24T21:08:42.801Z,96527.28
2022-12-24T21:11:27.873Z,96535.09
2022-12-24T21:13:54.563Z,96534.25
2022-12-24T21:16:21.156Z,96539.88
2022-12-24T21:18:47.855Z,96539.44
2022-12-24T21:21:14.461Z,96545.78
2022-12-24T21:23:41.094Z,96548.75
2022-12-24T21:26:07.868Z,96550.66
2022-12-24T21:28:34.389Z,96555.69
2022-12-24T21:31:01.064Z,96551.50
2022-12-24T21:33:28.950Z,96547.91
2022-12-24T21:35:59.136Z,96551.38
2022-12-24T21:38:26.049Z,96546.41
2022-12-24T21:41:03.636Z,96548.66
2022-12-24T21:43:30.607Z,96557.75
2022-12-24T21:45:57.331Z,96552.59
2022-12-24T21:48:42.848Z,96543.50
2022-12-24T21:51:09.394Z,96542.31
2022-12-24T21:53:54.959Z,96540.88
2022-12-24T21:56:22.404Z,96532.88
2022-12-24T21:58:49.737Z,96526.53
2022-12-24T22:01:16.458Z,96524.25
2022-12-24T22:03:43.458Z,96522.00
2022-12-24T22:06:30.622Z,96524.13
2022-12-24T22:09:15.531Z,96520.88
2022-12-24T22:11:53.859Z,96516.09
2022-12-24T22:14:21.149Z,96521.50
2022-12-24T22:16:47.721Z,96513.22
2022-12-24T22:19:14.301Z,96513.31
2022-12-24T22:21:40.797Z,96526.59
2022-12-24T22:24:07.573Z,96521.22
2022-12-24T22:26:34.098Z,96517.31
2022-12-24T22:29:00.700Z,96515.63
2022-12-24T22:31:27.465Z,96513.09
2022-12-24T22:33:54.080Z,96522.91
2022-12-24T22:36:20.650Z,96525.53
2022-12-24T22:38:47.148Z,96518.81
2022-12-24T22:41:14.261Z,96521.09
2022-12-24T22:43:41.384Z,96529.94
2022-12-24T22:46:09.359Z,96527.91
2022-12-24T22:48:36.416Z,96533.19
2022-12-24T22:51:06.980Z,96537.50
2022-12-24T22:53:34.385Z,96540.75
2022-12-24T22:56:00.992Z,96541.94
2022-12-24T22:58:27.941Z,96546.16
2022-12-24T23:00:54.501Z,96539.94
2022-12-24T23:03:21.219Z,96535.28
2022-12-24T23:05:54.910Z,96533.22
2022-12-24T23:08:21.447Z,96538.00
2022-12-24T23:10:47.984Z,96544.72
2022-12-24T23:13:33.195Z,96543.28
2022-12-24T23:16:03.927Z,96546.03
2022-12-24T23:18:30.685Z,96539.13
2022-12-24T23:20:57.251Z,96536.94
2022-12-24T23:23:23.807Z,96544.34
2022-12-24T23:25:50.351Z,96536.19
2022-12-24T23:28:16.899Z,96536.44
2022-12-24T23:30:43.439Z,96534.38
2022-12-24T23:33:10.043Z,96546.22
2022-12-24T23:35:36.634Z,96539.19
2022-12-24T23:38:03.130Z,96539.31
2022-12-24T23:40:29.674Z,96546.59
2022-12-24T23:42:56.209Z,96558.91
2022-12-24T23:45:22.934Z,96551.13
2022-12-24T23:47:49.462Z,96550.91
2022-12-24T23:50:16.023Z,96546.72
2022-12-24T23:52:42.601Z,96551.22
2022-12-24T23:55:09.242Z,96540.69
2022-12-24T23:57:35.736Z,96551.00
